Disclaimer

Please do not use the information listed here in-flight or in-navigation, as they are not provided to us by the airports but are provided by volunteers, so they might be outdated.

Search


Regions


Airport information page

Radio informations:
TRANSIT - 131.7 MHz
TAXIING - 119.0 MHz
Automatic Terminal Information Service (ATIS) - 124.8 MHz

Airport informations:
Latitude: 54° 33' 27.04" N
Longitude: 055° 52' 27.90" E
Elevation: 449 feet - 137 meters
Operating hours: 24 hour operations
Operating agency: Civil government, landing fees and diplomatic clearance may be required
Timezone: UTC+5(+6DT) - Last Sunday in March to last Sunday in October
Fuel: N/A

Runway information:
01/19 - 2215 x 345 feet< - >675 x 105 meters
05/23 - 2380 x 300 feet< - >725 x 91 meters
14/32 - 2115 x 315 feet< - >645 x 96 meters
14R/32L - 12340 x 197 feet< - >3761 x 60 meters
14L/32R - 8245 x 164 feet< - >2513 x 50 meters

Recent METARs:
UWUU 151030Z 17002MPS 130V200 CAVOK M02/M13 Q1041 R14R/0///60 NOSIG RMK QFE770/1027
UWUU 151100Z 16002MPS CAVOK M02/M13 Q1041 R14R/0///60 NOSIG RMK QFE770/1027
UWUU 151130Z 15002MPS CAVOK M03/M13 Q1041 R14R/0///60 NOSIG RMK QFE770/1027

Airport on the map: